createdAt,value
2022-10-06T00:00:36.423Z,15.50
2022-10-06T00:04:53.573Z,15.40
2022-10-06T00:09:11.249Z,15.50
2022-10-06T00:13:28.805Z,15.50
2022-10-06T00:17:46.099Z,15.50
2022-10-06T00:22:03.322Z,15.50
2022-10-06T00:26:20.723Z,15.50
2022-10-06T00:30:38.043Z,15.40
2022-10-06T00:34:55.215Z,15.40
2022-10-06T00:39:12.545Z,15.30
2022-10-06T00:43:50.108Z,15.30
2022-10-06T00:48:38.648Z,15.20
2022-10-06T00:52:56.086Z,15.30
2022-10-06T00:57:13.410Z,15.20
2022-10-06T01:01:32.271Z,15.10
2022-10-06T01:05:51.134Z,15.10
2022-10-06T01:10:08.598Z,15.20
2022-10-06T01:14:26.574Z,15.10
2022-10-06T01:18:45.282Z,15.20
2022-10-06T01:23:05.591Z,15.00
2022-10-06T01:27:24.887Z,15.00
2022-10-06T01:31:42.249Z,14.90
2022-10-06T01:35:59.523Z,14.70
2022-10-06T01:40:16.903Z,14.70
2022-10-06T01:44:34.101Z,14.70
2022-10-06T01:48:51.286Z,14.80
2022-10-06T01:53:08.580Z,14.70
2022-10-06T01:57:25.766Z,14.50
2022-10-06T02:01:43.045Z,14.40
2022-10-06T02:06:00.276Z,14.40
2022-10-06T02:10:17.731Z,14.50
2022-10-06T02:14:34.897Z,14.40
2022-10-06T02:18:52.210Z,14.50
2022-10-06T02:23:09.572Z,14.40
2022-10-06T02:27:26.764Z,14.40
2022-10-06T02:31:44.770Z,14.20
2022-10-06T02:36:02.998Z,14.50
2022-10-06T02:40:20.215Z,14.50
2022-10-06T02:44:37.379Z,14.50
2022-10-06T02:48:54.626Z,14.60
2022-10-06T02:53:11.828Z,14.50
2022-10-06T02:57:29.017Z,14.40
2022-10-06T03:01:46.305Z,14.40
2022-10-06T03:06:24.841Z,14.40
2022-10-06T03:10:42.042Z,14.60
2022-10-06T03:14:59.360Z,14.80
2022-10-06T03:19:16.840Z,14.70
2022-10-06T03:23:33.989Z,14.80
2022-10-06T03:27:51.204Z,14.60
2022-10-06T03:32:08.442Z,14.50
2022-10-06T03:36:28.147Z,14.70
2022-10-06T03:40:45.306Z,14.70
2022-10-06T03:45:02.505Z,14.70
2022-10-06T03:49:19.705Z,14.70
2022-10-06T03:53:37.438Z,14.80
2022-10-06T03:57:57.226Z,14.80
2022-10-06T04:02:14.531Z,14.70
2022-10-06T04:06:34.184Z,14.70
2022-10-06T04:10:51.659Z,14.70
2022-10-06T04:15:09.321Z,14.70
2022-10-06T04:19:27.958Z,14.60
2022-10-06T04:23:45.792Z,14.70
2022-10-06T04:28:03.135Z,14.80
2022-10-06T04:32:20.410Z,14.80
2022-10-06T04:36:40.839Z,14.80
2022-10-06T04:41:14.653Z,14.80
2022-10-06T04:45:31.955Z,14.90
2022-10-06T04:49:49.230Z,15.10
2022-10-06T04:54:06.442Z,15.20
2022-10-06T04:58:23.605Z,15.20
2022-10-06T05:02:40.937Z,15.30
2022-10-06T05:06:58.194Z,15.30
2022-10-06T05:11:18.149Z,15.40
2022-10-06T05:15:36.786Z,15.40
2022-10-06T05:19:53.977Z,15.40
2022-10-06T05:24:11.233Z,15.40
2022-10-06T05:28:30.753Z,15.50
2022-10-06T05:32:50.422Z,15.50
2022-10-06T05:37:07.681Z,15.40
2022-10-06T05:41:29.598Z,15.50
2022-10-06T05:45:54.863Z,15.50
2022-10-06T05:50:12.907Z,15.60
2022-10-06T05:54:30.271Z,15.60
2022-10-06T05:58:49.466Z,15.60
2022-10-06T06:03:09.860Z,15.60
2022-10-06T06:07:27.019Z,15.50
2022-10-06T06:11:47.054Z,15.30
2022-10-06T06:16:06.671Z,14.80
2022-10-06T06:20:23.854Z,14.00
2022-10-06T06:24:41.075Z,13.40
2022-10-06T06:29:04.051Z,13.00
2022-10-06T06:33:22.446Z,12.80
2022-10-06T06:37:39.969Z,12.70
2022-10-06T06:41:57.255Z,12.70
2022-10-06T06:46:16.129Z,12.70
2022-10-06T06:50:33.387Z,12.80
2022-10-06T06:54:50.654Z,12.80
2022-10-06T06:59:13.192Z,12.90
2022-10-06T07:03:55.953Z,12.90
2022-10-06T07:08:11.837Z,13.00
2022-10-06T07:12:29.098Z,13.00
2022-10-06T07:17:05.029Z,12.90
2022-10-06T07:21:41.051Z,13.00
2022-10-06T07:25:58.233Z,13.00
2022-10-06T07:30:23.816Z,13.00
2022-10-06T07:34:44.008Z,13.00
2022-10-06T07:39:01.254Z,13.10
2022-10-06T07:43:18.431Z,13.10
2022-10-06T07:47:39.308Z,13.20
2022-10-06T07:51:56.834Z,13.40
2022-10-06T07:56:15.735Z,13.30
2022-10-06T08:04:55.584Z,13.60
2022-10-06T08:09:13.357Z,13.60
2022-10-06T08:13:32.255Z,13.70
2022-10-06T08:17:49.387Z,13.90
2022-10-06T08:22:06.501Z,14.20
2022-10-06T08:26:26.615Z,14.20
2022-10-06T08:30:43.973Z,14.50
2022-10-06T08:35:01.700Z,14.50
2022-10-06T08:39:18.854Z,14.70
2022-10-06T08:43:36.058Z,15.20
2022-10-06T08:48:13.905Z,15.40
2022-10-06T08:52:41.200Z,15.70
2022-10-06T08:57:21.273Z,15.90
2022-10-06T09:01:45.404Z,15.40
2022-10-06T09:06:14.098Z,15.30
2022-10-06T09:10:42.108Z,15.60
2022-10-06T09:15:02.150Z,15.50
2022-10-06T09:19:24.594Z,15.80
2022-10-06T09:23:48.211Z,15.90
2022-10-06T09:28:15.796Z,16.10
2022-10-06T09:32:34.803Z,16.40
2022-10-06T09:37:03.036Z,16.80
2022-10-06T09:41:28.601Z,17.30
2022-10-06T09:45:45.779Z,16.80
2022-10-06T09:50:12.075Z,16.20
2022-10-06T09:54:31.324Z,16.30
2022-10-06T09:58:56.630Z,16.90
2022-10-06T10:03:13.893Z,17.40
2022-10-06T10:07:31.641Z,18.60
2022-10-06T10:12:27.592Z,19.40
2022-10-06T10:16:46.841Z,20.00
2022-10-06T10:21:08.512Z,20.60
2022-10-06T10:25:44.418Z,20.50
2022-10-06T10:30:19.642Z,21.10
2022-10-06T10:34:39.599Z,21.50
2022-10-06T10:38:57.552Z,20.70
2022-10-06T10:43:34.413Z,21.40
2022-10-06T10:47:54.173Z,21.50
2022-10-06T10:52:25.795Z,21.60
2022-10-06T10:56:44.265Z,20.80
2022-10-06T11:01:19.910Z,19.80
2022-10-06T11:05:40.122Z,21.00
2022-10-06T11:10:13.565Z,20.80
2022-10-06T11:14:44.102Z,20.70
2022-10-06T11:19:16.181Z,20.60
2022-10-06T11:23:47.454Z,21.90
2022-10-06T11:28:19.614Z,22.20
2022-10-06T11:32:48.296Z,22.70
2022-10-06T11:37:19.016Z,23.30
2022-10-06T11:41:49.357Z,22.90
2022-10-06T11:46:45.130Z,22.90
2022-10-06T11:51:25.653Z,22.90
2022-10-06T11:55:42.900Z,22.30
2022-10-06T12:00:05.571Z,22.40
2022-10-06T12:04:26.162Z,22.80
2022-10-06T12:08:43.331Z,21.70
2022-10-06T12:18:31.737Z,23.00
2022-10-06T12:23:29.528Z,22.80
2022-10-06T12:28:10.884Z,21.90
2022-10-06T12:32:39.545Z,21.50
2022-10-06T12:37:21.971Z,21.30
2022-10-06T12:41:57.072Z,20.80
2022-10-06T12:46:29.105Z,20.60
2022-10-06T12:50:51.074Z,21.00
2022-10-06T12:55:39.627Z,21.00
2022-10-06T12:59:57.574Z,21.00
2022-10-06T13:04:59.134Z,20.10
2022-10-06T13:09:16.542Z,19.00
2022-10-06T13:13:35.602Z,18.40
2022-10-06T13:17:57.870Z,18.20
2022-10-06T13:22:15.090Z,18.00
2022-10-06T13:26:34.616Z,17.90
2022-10-06T13:31:14.945Z,17.70
2022-10-06T13:35:32.174Z,17.60
2022-10-06T13:39:49.427Z,17.70
2022-10-06T13:44:14.056Z,17.70
2022-10-06T13:48:31.725Z,17.80
2022-10-06T13:52:50.547Z,17.70
2022-10-06T13:57:38.503Z,17.60
2022-10-06T14:01:57.955Z,17.70
2022-10-06T14:06:22.242Z,17.70
2022-10-06T14:10:51.571Z,17.60
2022-10-06T14:15:16.780Z,17.50
2022-10-06T14:19:38.920Z,17.40
2022-10-06T14:23:56.771Z,17.30
2022-10-06T14:28:14.000Z,17.20
2022-10-06T14:32:31.264Z,17.10
2022-10-06T14:36:51.461Z,17.00
2022-10-06T14:41:08.849Z,17.10
2022-10-06T14:45:26.021Z,17.10
2022-10-06T14:49:44.870Z,17.00
2022-10-06T14:54:03.409Z,17.00
2022-10-06T14:58:20.657Z,17.00
2022-10-06T15:02:37.926Z,17.00
2022-10-06T15:07:14.021Z,17.00
2022-10-06T15:11:31.651Z,16.90
2022-10-06T15:15:51.104Z,16.90
2022-10-06T15:20:09.102Z,16.80
2022-10-06T15:24:26.471Z,16.80
2022-10-06T15:29:03.056Z,16.80
2022-10-06T15:33:20.291Z,16.70
2022-10-06T15:37:39.293Z,16.70
2022-10-06T15:41:56.761Z,16.70
2022-10-06T15:46:13.891Z,16.60
2022-10-06T15:50:31.085Z,16.60
2022-10-06T15:54:49.796Z,16.40
2022-10-06T15:59:07.935Z,16.10
2022-10-06T16:03:40.762Z,15.90
2022-10-06T16:07:58.378Z,15.50
2022-10-06T16:12:21.344Z,15.20
2022-10-06T16:16:43.340Z,14.70
2022-10-06T16:21:00.940Z,14.40
2022-10-06T16:25:18.124Z,14.10
2022-10-06T16:29:35.371Z,13.80
2022-10-06T16:33:52.953Z,13.50
2022-10-06T16:38:10.110Z,13.30
2022-10-06T16:42:27.387Z,13.00
2022-10-06T16:46:45.292Z,12.80
2022-10-06T16:51:06.570Z,12.50
2022-10-06T16:55:23.825Z,12.30
2022-10-06T16:59:44.496Z,12.10
2022-10-06T17:04:15.026Z,11.90
2022-10-06T17:08:32.560Z,11.60
2022-10-06T17:12:49.763Z,11.50
2022-10-06T17:17:07.135Z,11.30
2022-10-06T17:21:44.874Z,11.20
2022-10-06T17:26:17.466Z,11.00
2022-10-06T17:30:34.687Z,10.80
2022-10-06T17:34:52.102Z,10.60
2022-10-06T17:39:11.819Z,10.50
2022-10-06T17:43:29.011Z,10.40
2022-10-06T17:47:47.199Z,10.20
2022-10-06T17:52:05.825Z,10.00
2022-10-06T17:56:25.602Z,9.90
2022-10-06T18:00:42.860Z,9.80
2022-10-06T18:05:00.231Z,9.70
2022-10-06T18:09:18.308Z,9.60
2022-10-06T18:13:35.467Z,9.50
2022-10-06T18:17:52.727Z,9.40
2022-10-06T18:22:10.587Z,9.30
2022-10-06T18:26:28.702Z,9.20
2022-10-06T18:30:52.577Z,9.10
2022-10-06T18:39:46.910Z,9.00
2022-10-06T18:44:07.238Z,8.90
2022-10-06T18:48:42.822Z,8.80
2022-10-06T18:52:59.990Z,8.80
2022-10-06T18:57:17.138Z,8.80
2022-10-06T19:01:35.167Z,8.60
2022-10-06T19:05:53.026Z,8.60
2022-10-06T19:10:10.341Z,8.60
2022-10-06T19:14:36.944Z,8.50
2022-10-06T19:18:55.652Z,8.50
2022-10-06T19:23:14.704Z,8.50
2022-10-06T19:27:33.707Z,8.40
2022-10-06T19:31:54.917Z,8.40
2022-10-06T19:36:12.336Z,8.30
2022-10-06T19:40:29.558Z,8.30
2022-10-06T19:44:46.836Z,8.40
2022-10-06T19:49:06.202Z,8.40
2022-10-06T19:53:23.376Z,8.30
2022-10-06T19:57:40.783Z,8.10
2022-10-06T20:01:58.175Z,8.00
2022-10-06T20:06:16.723Z,7.90
2022-10-06T20:10:34.691Z,7.80
2022-10-06T20:14:53.658Z,7.80
2022-10-06T20:19:11.742Z,7.70
2022-10-06T20:23:29.036Z,7.60
2022-10-06T20:27:46.667Z,7.40
2022-10-06T20:32:05.116Z,7.40
2022-10-06T20:36:22.536Z,7.30
2022-10-06T20:40:49.105Z,7.30
2022-10-06T20:45:07.037Z,7.20
2022-10-06T20:49:24.631Z,7.30
2022-10-06T20:53:41.953Z,7.20
2022-10-06T20:57:59.377Z,7.20
2022-10-06T21:02:16.735Z,7.10
2022-10-06T21:06:34.147Z,7.00
2022-10-06T21:10:58.726Z,7.10
2022-10-06T21:15:16.164Z,7.00
2022-10-06T21:19:38.006Z,7.00
2022-10-06T21:23:55.843Z,7.00
2022-10-06T21:28:14.407Z,6.90
2022-10-06T21:32:32.710Z,6.90
2022-10-06T21:36:50.050Z,6.80
2022-10-06T21:41:26.325Z,6.80
2022-10-06T21:45:47.102Z,6.80
2022-10-06T21:50:04.604Z,6.60
2022-10-06T21:54:23.167Z,6.60
2022-10-06T21:58:40.459Z,6.50
2022-10-06T22:02:57.892Z,6.40
2022-10-06T22:07:15.243Z,6.40
2022-10-06T22:11:36.010Z,6.40
2022-10-06T22:15:53.375Z,6.30
2022-10-06T22:20:10.776Z,6.40
2022-10-06T22:24:28.264Z,6.40
2022-10-06T22:28:48.116Z,6.30
2022-10-06T22:33:05.465Z,6.30
2022-10-06T22:37:22.763Z,6.20
2022-10-06T22:41:40.311Z,6.10
2022-10-06T22:45:57.714Z,6.00
2022-10-06T22:50:14.998Z,6.00
2022-10-06T22:54:32.405Z,6.00
2022-10-06T22:58:49.790Z,5.90
2022-10-06T23:03:08.086Z,5.70
2022-10-06T23:07:25.486Z,5.70
2022-10-06T23:11:42.757Z,5.70
2022-10-06T23:16:07.806Z,5.60
2022-10-06T23:20:25.548Z,5.50
2022-10-06T23:24:42.846Z,5.60
2022-10-06T23:29:01.502Z,5.50
2022-10-06T23:33:18.797Z,5.40
2022-10-06T23:37:37.025Z,5.50
2022-10-06T23:41:54.321Z,5.50
2022-10-06T23:46:12.280Z,5.50
2022-10-06T23:50:29.699Z,5.60
2022-10-06T23:54:47.058Z,5.60
2022-10-06T23:59:04.812Z,5.70
